Time;durP1;ratioP1;P1;durP2;ratioP2;P2;SDS_P1;SDS_P2;PMS_P1;PMS_P2;Temp;Humidity;BMP_temperature;BMP_pressure;BME280_temperature;BME280_humidity;BME280_pressure;Samples;Min_cycle;Max_cycle;Signal;HPM_P1;HPM_P2
2022/03/21 00:01:47;;;;;;;86.63;32.90;;;;;;;;;;4836413;29;20042;-85
2022/03/21 00:04:33;;;;;;;75.88;30.85;;;;;;;;;;4830176;29;20382;-86
2022/03/21 00:07:19;;;;;;;61.45;25.90;;;;;;;;;;4835797;29;20045;-86
2022/03/21 00:10:05;;;;;;;68.75;26.38;;;;;;;;;;4836286;29;20050;-87
2022/03/21 00:12:51;;;;;;;60.50;25.13;;;;;;;;;;4830277;29;20394;-86
2022/03/21 00:15:36;;;;;;;74.97;26.88;;;;;;;;;;4823523;29;20041;-86
2022/03/21 00:18:23;;;;;;;66.82;26.15;;;;;;;;;;4835059;29;20058;-89
2022/03/21 00:21:09;;;;;;;42.72;20.00;;;;;;;;;;4817875;29;20415;-87
2022/03/21 00:23:54;;;;;;;51.10;22.45;;;;;;;;;;4817928;29;20046;-89
2022/03/21 00:26:40;;;;;;;80.82;34.47;;;;;;;;;;4817553;29;20467;-86
2022/03/21 00:29:38;;;;;;;77.72;33.05;;;;;;;;;;4818109;29;20039;-87
2022/03/21 00:32:23;;;;;;;81.55;33.42;;;;;;;;;;4830241;29;20042;-85
2022/03/21 00:35:12;;;;;;;85.43;36.38;;;;;;;;;;4817997;29;20046;-86
2022/03/21 00:37:58;;;;;;;100.47;39.65;;;;;;;;;;4817717;29;20058;-88
2022/03/21 00:40:47;;;;;;;112.55;42.97;;;;;;;;;;4813137;29;20371;-90
2022/03/21 00:43:33;;;;;;;117.45;45.25;;;;;;;;;;4817365;29;20042;-89
2022/03/21 00:46:25;;;;;;;119.57;45.33;;;;;;;;;;4817365;29;20054;-87
2022/03/21 00:49:13;;;;;;;117.63;43.33;;;;;;;;;;4826862;29;20054;-88
2022/03/21 00:51:58;;;;;;;87.47;36.97;;;;;;;;;;4804976;29;20482;-84
2022/03/21 00:54:44;;;;;;;90.43;37.08;;;;;;;;;;4819283;29;20117;-86
2022/03/21 00:57:53;;;;;;;83.28;32.45;;;;;;;;;;4817751;29;20046;-89
2022/03/21 01:00:38;;;;;;;95.15;35.05;;;;;;;;;;4794360;29;20046;-87
2022/03/21 01:03:23;;;;;;;109.15;37.33;;;;;;;;;;4804629;29;20050;-88
2022/03/21 01:06:09;;;;;;;114.88;41.00;;;;;;;;;;4806020;29;20386;-88
2022/03/21 01:08:54;;;;;;;116.03;40.08;;;;;;;;;;4810734;29;20053;-85
2022/03/21 01:11:39;;;;;;;127.28;40.13;;;;;;;;;;4836794;29;20046;-86
2022/03/21 01:14:24;;;;;;;107.00;36.38;;;;;;;;;;4823813;29;20367;-88
2022/03/21 01:17:09;;;;;;;93.43;30.13;;;;;;;;;;4837727;29;20046;-86
2022/03/21 01:19:55;;;;;;;64.35;24.75;;;;;;;;;;4839871;29;20054;-86
2022/03/21 01:22:41;;;;;;;52.25;20.70;;;;;;;;;;4828411;29;20045;-86
2022/03/21 01:25:26;;;;;;;45.92;19.50;;;;;;;;;;4829190;29;20050;-85
2022/03/21 01:28:12;;;;;;;50.53;21.40;;;;;;;;;;4839403;29;20398;-86
2022/03/21 01:30:57;;;;;;;49.15;21.02;;;;;;;;;;4839454;29;20045;-87
2022/03/21 01:33:43;;;;;;;39.25;17.38;;;;;;;;;;4839000;29;20397;-87
2022/03/21 01:36:29;;;;;;;35.13;16.75;;;;;;;;;;4838844;29;20050;-86
2022/03/21 01:39:14;;;;;;;39.97;17.52;;;;;;;;;;4838425;29;20474;-88
2022/03/21 01:42:00;;;;;;;36.08;17.60;;;;;;;;;;4826047;29;20466;-86
2022/03/21 01:44:49;;;;;;;38.40;18.70;;;;;;;;;;4838925;29;20057;-87
2022/03/21 01:47:35;;;;;;;41.28;19.10;;;;;;;;;;4826313;29;20469;-86
2022/03/21 01:50:21;;;;;;;65.45;26.63;;;;;;;;;;4825777;29;20046;-86
2022/03/21 01:56:10;;;;;;;67.55;29.33;;;;;;;;;;4838295;29;20057;-85
2022/03/21 01:58:56;;;;;;;67.95;26.90;;;;;;;;;;4839141;29;20046;-86
2022/03/21 02:01:43;;;;;;;51.17;23.23;;;;;;;;;;4839021;29;20050;-87
2022/03/21 02:04:28;;;;;;;51.33;23.58;;;;;;;;;;4838315;29;20053;-86
2022/03/21 02:07:14;;;;;;;53.40;25.13;;;;;;;;;;4825818;29;20030;-86
2022/03/21 02:10:02;;;;;;;51.55;23.08;;;;;;;;;;4838232;29;20046;-87
2022/03/21 02:12:48;;;;;;;58.00;25.15;;;;;;;;;;4825864;29;20057;-85
2022/03/21 02:15:34;;;;;;;66.13;27.20;;;;;;;;;;4838946;29;20050;-87
2022/03/21 02:18:20;;;;;;;57.80;26.10;;;;;;;;;;4832657;29;20054;-86
2022/03/21 02:21:15;;;;;;;62.72;27.27;;;;;;;;;;4825135;29;20046;-86
2022/03/21 02:24:09;;;;;;;60.72;25.88;;;;;;;;;;4819021;29;20054;-86
2022/03/21 02:26:56;;;;;;;62.70;27.08;;;;;;;;;;4832050;29;20046;-86
2022/03/21 02:29:43;;;;;;;67.10;28.05;;;;;;;;;;4825683;29;20042;-87
2022/03/21 02:32:29;;;;;;;67.78;27.88;;;;;;;;;;4825259;29;20053;-86
2022/03/21 02:35:16;;;;;;;70.20;26.83;;;;;;;;;;4820947;29;20466;-86
2022/03/21 02:38:02;;;;;;;72.70;28.75;;;;;;;;;;4819547;29;20062;-87
2022/03/21 02:40:48;;;;;;;65.78;26.85;;;;;;;;;;4815271;29;20054;-85
2022/03/21 02:43:55;;;;;;;64.22;27.17;;;;;;;;;;4832707;29;20399;-85
2022/03/21 02:46:40;;;;;;;106.97;34.28;;;;;;;;;;4822460;29;20466;-86
2022/03/21 02:49:25;;;;;;;70.13;27.35;;;;;;;;;;4830591;29;20486;-86
2022/03/21 02:52:19;;;;;;;74.65;27.13;;;;;;;;;;4837983;29;20486;-87
2022/03/21 02:55:04;;;;;;;80.50;29.45;;;;;;;;;;4820480;29;20490;-87
2022/03/21 02:57:49;;;;;;;78.60;30.60;;;;;;;;;;4833797;29;20419;-88
2022/03/21 03:00:37;;;;;;;77.53;28.35;;;;;;;;;;4843120;29;20054;-87
2022/03/21 03:03:23;;;;;;;74.43;28.45;;;;;;;;;;4839937;29;20041;-87
2022/03/21 03:06:09;;;;;;;61.28;26.00;;;;;;;;;;4835726;29;20049;-86
2022/03/21 03:08:54;;;;;;;75.30;28.65;;;;;;;;;;4836822;29;20037;-87
2022/03/21 03:11:40;;;;;;;59.67;24.38;;;;;;;;;;4825503;29;20394;-87
2022/03/21 03:14:26;;;;;;;61.63;26.15;;;;;;;;;;4837147;29;20057;-87
2022/03/21 03:17:11;;;;;;;69.85;25.85;;;;;;;;;;4837201;29;20057;-88
2022/03/21 03:19:57;;;;;;;72.43;27.45;;;;;;;;;;4837194;29;20050;-86
2022/03/21 03:22:43;;;;;;;66.18;24.55;;;;;;;;;;4837350;29;20062;-86
2022/03/21 03:25:28;;;;;;;66.28;25.52;;;;;;;;;;4837107;29;20054;-87
2022/03/21 03:28:14;;;;;;;65.13;27.52;;;;;;;;;;4837072;29;20050;-86
2022/03/21 03:30:59;;;;;;;62.42;25.20;;;;;;;;;;4837110;29;20049;-88
2022/03/21 03:33:46;;;;;;;71.13;26.65;;;;;;;;;;4836705;29;20053;-87
2022/03/21 03:36:32;;;;;;;52.33;20.50;;;;;;;;;;4824504;29;20478;-84
2022/03/21 03:39:17;;;;;;;45.28;18.75;;;;;;;;;;4823806;29;20378;-85
2022/03/21 03:42:03;;;;;;;49.45;19.23;;;;;;;;;;4823654;29;20057;-87
2022/03/21 03:44:48;;;;;;;42.35;16.67;;;;;;;;;;4837715;29;20042;-88
2022/03/21 03:47:34;;;;;;;31.52;14.95;;;;;;;;;;4836999;29;20398;-86
2022/03/21 03:50:20;;;;;;;35.42;16.27;;;;;;;;;;4824728;29;20470;-87
2022/03/21 03:53:06;;;;;;;33.33;13.98;;;;;;;;;;4824289;29;20042;-89
2022/03/21 03:55:52;;;;;;;34.90;14.40;;;;;;;;;;4836537;29;20057;-85
2022/03/21 03:58:38;;;;;;;36.38;15.52;;;;;;;;;;4823794;29;20050;-86
2022/03/21 04:01:23;;;;;;;31.10;13.90;;;;;;;;;;4823778;29;20053;-85
2022/03/21 04:04:09;;;;;;;26.40;12.80;;;;;;;;;;4836336;29;20045;-84
2022/03/21 04:06:55;;;;;;;30.38;12.25;;;;;;;;;;4836720;29;20053;-88
2022/03/21 04:09:41;;;;;;;23.92;12.52;;;;;;;;;;4823604;29;20061;-85
2022/03/21 04:12:26;;;;;;;23.48;11.68;;;;;;;;;;4824228;29;20058;-87
2022/03/21 04:15:12;;;;;;;23.77;11.25;;;;;;;;;;4836773;29;20049;-88
2022/03/21 04:18:07;;;;;;;26.40;11.15;;;;;;;;;;4836586;29;20057;-88
2022/03/21 04:20:53;;;;;;;22.95;11.30;;;;;;;;;;4836318;29;20496;-88
2022/03/21 04:23:38;;;;;;;23.13;11.77;;;;;;;;;;4835817;29;20054;-87
2022/03/21 04:26:25;;;;;;;23.98;13.05;;;;;;;;;;4823769;29;20053;-87
2022/03/21 04:29:10;;;;;;;28.83;15.35;;;;;;;;;;4836249;29;20045;-85
2022/03/21 04:31:56;;;;;;;33.15;15.45;;;;;;;;;;4823901;29;20058;-86
2022/03/21 04:34:42;;;;;;;34.45;16.48;;;;;;;;;;4836025;29;20053;-86
2022/03/21 04:37:27;;;;;;;45.05;20.30;;;;;;;;;;4835752;29;20054;-84
2022/03/21 04:40:13;;;;;;;45.00;18.88;;;;;;;;;;4802070;29;20058;-88
2022/03/21 04:42:58;;;;;;;39.05;19.83;;;;;;;;;;4817629;29;20467;-86
2022/03/21 04:45:47;;;;;;;46.65;21.70;;;;;;;;;;4818010;29;20054;-86
2022/03/21 04:48:32;;;;;;;50.90;24.15;;;;;;;;;;4817608;29;20050;-89
2022/03/21 04:51:18;;;;;;;47.33;21.73;;;;;;;;;;4830880;29;20058;-86
2022/03/21 04:54:03;;;;;;;42.40;22.23;;;;;;;;;;4832279;29;20054;-87
2022/03/21 04:56:48;;;;;;;69.55;25.83;;;;;;;;;;4818229;29;20046;-88
2022/03/21 04:59:36;;;;;;;79.85;29.10;;;;;;;;;;4829607;29;20050;-87
2022/03/21 05:02:22;;;;;;;72.28;26.23;;;;;;;;;;4817544;29;20065;-87
2022/03/21 05:05:11;;;;;;;50.70;20.08;;;;;;;;;;4829927;29;20058;-87
2022/03/21 05:07:57;;;;;;;57.25;20.65;;;;;;;;;;4830000;29;20415;-89
2022/03/21 05:10:42;;;;;;;54.88;20.95;;;;;;;;;;4829813;29;20058;-87
2022/03/21 05:13:28;;;;;;;61.40;24.88;;;;;;;;;;4804838;29;20059;-88
2022/03/21 05:16:14;;;;;;;65.63;26.45;;;;;;;;;;4811660;29;20047;-87
2022/03/21 05:19:01;;;;;;;50.03;21.48;;;;;;;;;;4811510;29;20055;-86
2022/03/21 05:21:47;;;;;;;96.13;37.33;;;;;;;;;;4814784;29;20482;-86
2022/03/21 05:30:59;;;;;;;121.45;46.33;;;;;;;;;;4830220;29;20054;-87
2022/03/21 05:36:50;;;;;;;82.55;34.33;;;;;;;;;;4829238;29;20042;-85
2022/03/21 05:40:31;;;;;;;90.80;37.28;;;;;;;;;;4837853;29;20376;-89
2022/03/21 05:42:42;;;;;;;127.65;49.25;;;;;;;;;;4835887;29;20038;-86
2022/03/21 05:45:49;;;;;;;81.10;39.22;;;;;;;;;;4841351;29;20355;-88
2022/03/21 05:48:51;;;;;;;70.97;33.92;;;;;;;;;;4841135;29;20497;-88
2022/03/21 05:51:40;;;;;;;78.28;35.72;;;;;;;;;;4835096;29;20053;-88
2022/03/21 05:54:31;;;;;;;78.82;38.72;;;;;;;;;;4834944;29;20062;-89
2022/03/21 05:57:29;;;;;;;88.03;37.30;;;;;;;;;;4817300;29;20049;-86
2022/03/21 06:00:29;;;;;;;73.38;31.85;;;;;;;;;;4812274;29;20038;-87
2022/03/21 06:03:17;;;;;;;87.18;31.75;;;;;;;;;;4811706;29;20038;-90
2022/03/21 06:06:02;;;;;;;87.43;36.03;;;;;;;;;;4817032;29;20050;-86
2022/03/21 06:08:49;;;;;;;85.25;36.35;;;;;;;;;;4849215;29;20046;-88
2022/03/21 06:11:36;;;;;;;66.65;32.53;;;;;;;;;;4837603;29;20045;-88
2022/03/21 06:14:22;;;;;;;73.68;36.03;;;;;;;;;;4850002;29;20046;-89
2022/03/21 06:17:07;;;;;;;78.15;35.63;;;;;;;;;;4837440;29;20045;-85
2022/03/21 06:19:52;;;;;;;89.82;38.83;;;;;;;;;;4845807;29;20045;-87
2022/03/21 06:22:38;;;;;;;84.40;38.67;;;;;;;;;;4838094;29;20045;-87
2022/03/21 06:25:24;;;;;;;87.15;37.72;;;;;;;;;;4838606;29;20050;-86
2022/03/21 06:28:09;;;;;;;81.22;37.28;;;;;;;;;;4851211;29;20151;-87
2022/03/21 06:30:56;;;;;;;67.93;33.42;;;;;;;;;;4838124;29;20050;-87
2022/03/21 06:33:42;;;;;;;69.95;30.58;;;;;;;;;;4825760;29;20406;-84
2022/03/21 06:36:27;;;;;;;57.05;28.50;;;;;;;;;;4850716;29;20466;-87
2022/03/21 06:39:13;;;;;;;41.63;22.50;;;;;;;;;;4848498;29;20458;-86
2022/03/21 06:42:01;;;;;;;41.03;20.35;;;;;;;;;;4841953;29;20402;-85
2022/03/21 06:44:50;;;;;;;46.53;23.33;;;;;;;;;;4833413;29;20046;-85
2022/03/21 06:47:34;;;;;;;60.20;26.85;;;;;;;;;;4854056;29;20038;-85
2022/03/21 06:50:23;;;;;;;56.08;26.45;;;;;;;;;;4852936;29;20393;-86
2022/03/21 06:53:09;;;;;;;61.42;30.88;;;;;;;;;;4848083;29;20054;-85
2022/03/21 06:55:54;;;;;;;60.92;29.52;;;;;;;;;;4837814;29;20049;-87
2022/03/21 06:58:39;;;;;;;63.88;29.55;;;;;;;;;;4837469;29;20045;-84
2022/03/21 07:01:25;;;;;;;69.38;34.17;;;;;;;;;;4845398;29;20050;-83
2022/03/21 07:04:10;;;;;;;75.97;32.03;;;;;;;;;;4844718;29;20042;-84
2022/03/21 07:06:57;;;;;;;72.50;37.30;;;;;;;;;;4845438;29;20049;-83
2022/03/21 07:09:43;;;;;;;101.57;46.17;;;;;;;;;;4845462;29;20038;-84
2022/03/21 07:12:28;;;;;;;91.40;41.47;;;;;;;;;;4843661;29;20042;-86
2022/03/21 07:15:15;;;;;;;65.88;31.95;;;;;;;;;;4843853;29;20050;-86
2022/03/21 07:18:00;;;;;;;56.03;29.42;;;;;;;;;;4850191;29;20466;-84
2022/03/21 07:20:46;;;;;;;50.50;27.05;;;;;;;;;;4844887;29;20049;-84
2022/03/21 07:23:31;;;;;;;47.30;26.73;;;;;;;;;;4844488;29;20046;-82
2022/03/21 07:26:17;;;;;;;52.85;27.50;;;;;;;;;;4836970;29;20046;-84
2022/03/21 07:29:04;;;;;;;57.78;28.73;;;;;;;;;;4850364;29;20058;-85
2022/03/21 07:31:49;;;;;;;45.15;22.83;;;;;;;;;;4844524;29;20046;-83
2022/03/21 07:34:35;;;;;;;49.42;24.70;;;;;;;;;;4845131;29;20065;-87
2022/03/21 07:37:20;;;;;;;43.45;23.77;;;;;;;;;;4837537;29;20049;-84
2022/03/21 07:40:06;;;;;;;52.97;26.90;;;;;;;;;;4830515;29;20053;-87
2022/03/21 07:42:52;;;;;;;56.45;28.35;;;;;;;;;;4849568;29;20481;-85
2022/03/21 07:48:42;;;;;;;49.00;24.25;;;;;;;;;;4849687;29;20050;-83
2022/03/21 07:51:27;;;;;;;50.17;25.45;;;;;;;;;;4843417;29;20489;-84
2022/03/21 07:54:13;;;;;;;62.13;29.35;;;;;;;;;;4850018;29;20046;-83
2022/03/21 07:56:58;;;;;;;43.38;21.98;;;;;;;;;;4836286;29;20049;-85
2022/03/21 07:59:44;;;;;;;41.92;21.73;;;;;;;;;;4844025;29;20057;-84
2022/03/21 08:02:30;;;;;;;44.53;23.58;;;;;;;;;;4830772;29;20046;-85
2022/03/21 08:05:15;;;;;;;52.13;26.85;;;;;;;;;;4850357;29;20042;-84
2022/03/21 08:08:01;;;;;;;49.65;26.75;;;;;;;;;;4843073;29;20041;-84
2022/03/21 08:10:47;;;;;;;50.95;26.85;;;;;;;;;;4849347;29;20050;-84
2022/03/21 08:13:32;;;;;;;52.00;26.63;;;;;;;;;;4847668;29;20050;-84
2022/03/21 08:16:19;;;;;;;49.60;25.25;;;;;;;;;;4849218;29;20042;-86
2022/03/21 08:19:06;;;;;;;38.70;20.17;;;;;;;;;;4835984;29;20037;-84
2022/03/21 08:21:53;;;;;;;43.33;21.48;;;;;;;;;;4849856;29;20054;-85
2022/03/21 08:24:38;;;;;;;51.92;23.50;;;;;;;;;;4828358;29;20042;-87
2022/03/21 08:27:23;;;;;;;34.28;17.83;;;;;;;;;;4848435;29;20050;-86
2022/03/21 08:30:10;;;;;;;32.22;17.35;;;;;;;;;;4816758;29;20042;-85
2022/03/21 08:32:55;;;;;;;32.65;17.40;;;;;;;;;;4845223;29;20050;-84
2022/03/21 08:35:41;;;;;;;34.67;18.42;;;;;;;;;;4850105;29;20050;-85
2022/03/21 08:38:26;;;;;;;37.22;19.73;;;;;;;;;;4829973;29;20045;-86
2022/03/21 08:41:12;;;;;;;32.90;17.08;;;;;;;;;;4830795;29;20049;-85
2022/03/21 08:43:57;;;;;;;33.63;19.20;;;;;;;;;;4836278;29;20458;-86
2022/03/21 08:46:42;;;;;;;36.90;16.98;;;;;;;;;;4829923;29;20038;-86
2022/03/21 08:49:27;;;;;;;33.25;17.27;;;;;;;;;;4835416;29;20042;-86
2022/03/21 08:52:13;;;;;;;27.83;14.95;;;;;;;;;;4843817;29;20045;-86
2022/03/21 08:54:59;;;;;;;31.02;15.63;;;;;;;;;;4848559;29;20053;-85
2022/03/21 08:57:44;;;;;;;30.48;12.07;;;;;;;;;;4843467;29;20393;-87
2022/03/21 09:00:30;;;;;;;25.52;12.18;;;;;;;;;;4848669;29;20042;-85
2022/03/21 09:03:15;;;;;;;30.75;15.18;;;;;;;;;;4848490;29;20390;-86
2022/03/21 09:06:00;;;;;;;31.52;14.55;;;;;;;;;;4829820;29;20037;-81
2022/03/21 09:08:49;;;;;;;27.55;14.77;;;;;;;;;;4843233;29;20046;-83
2022/03/21 09:11:37;;;;;;;33.53;16.42;;;;;;;;;;4848025;29;20057;-84
2022/03/21 09:14:23;;;;;;;36.33;19.00;;;;;;;;;;4843323;29;20042;-84
2022/03/21 09:17:09;;;;;;;32.22;16.52;;;;;;;;;;4848766;29;20045;-85
2022/03/21 09:19:54;;;;;;;26.23;15.48;;;;;;;;;;4849512;29;20509;-85
2022/03/21 09:22:39;;;;;;;33.85;15.07;;;;;;;;;;4849022;29;20042;-87
2022/03/21 09:25:25;;;;;;;42.28;19.02;;;;;;;;;;4842247;29;20050;-83
2022/03/21 09:28:10;;;;;;;28.20;15.52;;;;;;;;;;4842868;29;20042;-84
2022/03/21 09:30:56;;;;;;;60.10;29.60;;;;;;;;;;4848541;29;20042;-83
2022/03/21 09:33:43;;;;;;;23.63;13.70;;;;;;;;;;4843014;29;20049;-84
2022/03/21 09:36:28;;;;;;;37.53;21.20;;;;;;;;;;4843255;29;20440;-84
2022/03/21 09:39:14;;;;;;;26.70;14.15;;;;;;;;;;4842526;29;20045;-83
2022/03/21 09:42:00;;;;;;;25.92;13.95;;;;;;;;;;4852714;29;20054;-86
2022/03/21 09:44:46;;;;;;;23.92;14.85;;;;;;;;;;4846403;29;20049;-85
2022/03/21 09:50:39;;;;;;;37.28;22.25;;;;;;;;;;4852498;29;20057;-84
2022/03/21 09:53:25;;;;;;;22.85;12.32;;;;;;;;;;4832017;29;20050;-85
2022/03/21 09:56:11;;;;;;;19.23;11.90;;;;;;;;;;4852856;29;20045;-84
2022/03/21 09:59:00;;;;;;;22.60;12.70;;;;;;;;;;4838419;29;20042;-86
2022/03/21 10:01:45;;;;;;;26.67;13.75;;;;;;;;;;4852986;29;20442;-85
2022/03/21 10:04:30;;;;;;;22.90;12.40;;;;;;;;;;4846071;29;20042;-85
2022/03/21 10:07:23;;;;;;;31.58;17.13;;;;;;;;;;4852091;29;20054;-85
2022/03/21 10:10:16;;;;;;;20.67;10.07;;;;;;;;;;4847029;29;20053;-89
2022/03/21 10:13:02;;;;;;;13.35;7.47;;;;;;;;;;4836195;29;20046;-83
2022/03/21 10:15:48;;;;;;;18.05;9.18;;;;;;;;;;4845333;29;20474;-85
2022/03/21 10:18:34;;;;;;;19.38;9.52;;;;;;;;;;4847801;29;20049;-83
2022/03/21 10:21:22;;;;;;;17.40;8.73;;;;;;;;;;4849148;29;20050;-83
2022/03/21 10:24:10;;;;;;;18.60;9.77;;;;;;;;;;4849468;29;20042;-84
2022/03/21 10:26:55;;;;;;;21.30;11.13;;;;;;;;;;4858657;29;20045;-84
2022/03/21 10:29:51;;;;;;;17.52;9.75;;;;;;;;;;4856489;29;20046;-83
2022/03/21 10:32:42;;;;;;;19.58;10.63;;;;;;;;;;4832626;29;20042;-83
2022/03/21 10:35:29;;;;;;;18.30;11.10;;;;;;;;;;4837735;29;20486;-83
2022/03/21 10:38:29;;;;;;;21.40;10.77;;;;;;;;;;4838585;29;20049;-85
2022/03/21 10:41:14;;;;;;;22.08;12.20;;;;;;;;;;4826293;29;20046;-84
2022/03/21 10:44:00;;;;;;;19.10;9.20;;;;;;;;;;4827005;29;20050;-84
2022/03/21 10:46:52;;;;;;;18.15;10.57;;;;;;;;;;4832895;29;20479;-84
2022/03/21 10:49:43;;;;;;;10.90;5.75;;;;;;;;;;4826479;29;20042;-83
2022/03/21 10:52:30;;;;;;;12.95;7.75;;;;;;;;;;4832264;29;20046;-83
2022/03/21 10:55:22;;;;;;;17.10;10.38;;;;;;;;;;4827143;29;20062;-82
2022/03/21 10:58:09;;;;;;;16.20;9.35;;;;;;;;;;4833372;29;20047;-82
2022/03/21 11:00:55;;;;;;;19.45;10.65;;;;;;;;;;4833107;29;20047;-82
2022/03/21 11:03:43;;;;;;;20.67;10.93;;;;;;;;;;4826208;29;20394;-83
2022/03/21 11:06:29;;;;;;;17.35;8.98;;;;;;;;;;4826662;29;20054;-82
2022/03/21 11:09:15;;;;;;;17.02;10.55;;;;;;;;;;4826663;29;20042;-84
2022/03/21 11:12:02;;;;;;;15.63;8.75;;;;;;;;;;4826853;29;20039;-83
2022/03/21 11:14:48;;;;;;;19.27;10.60;;;;;;;;;;4831863;29;20055;-84
2022/03/21 11:17:33;;;;;;;19.73;10.75;;;;;;;;;;4826414;29;20050;-83
2022/03/21 11:20:19;;;;;;;16.38;10.00;;;;;;;;;;4831865;29;20054;-84
2022/03/21 11:23:04;;;;;;;19.25;11.07;;;;;;;;;;4826459;29;20050;-83
2022/03/21 11:25:55;;;;;;;20.02;11.52;;;;;;;;;;4827182;29;20382;-84
2022/03/21 11:28:53;;;;;;;16.20;9.38;;;;;;;;;;4832630;29;20474;-83
2022/03/21 11:32:00;;;;;;;22.35;11.48;;;;;;;;;;4826981;29;20047;-83
2022/03/21 11:35:06;;;;;;;18.30;10.45;;;;;;;;;;4826905;29;20050;-85
2022/03/21 11:37:53;;;;;;;16.33;10.38;;;;;;;;;;4826586;29;20050;-84
2022/03/21 11:40:39;;;;;;;17.92;10.32;;;;;;;;;;4838818;29;20045;-83
2022/03/21 11:43:27;;;;;;;16.30;9.60;;;;;;;;;;4850764;29;20394;-85
2022/03/21 11:46:27;;;;;;;27.05;10.70;;;;;;;;;;4844769;29;20054;-86
2022/03/21 11:49:19;;;;;;;16.88;9.98;;;;;;;;;;4844657;29;20041;-86
2022/03/21 11:52:04;;;;;;;22.17;10.75;;;;;;;;;;4836566;29;20046;-84
2022/03/21 11:54:50;;;;;;;15.60;10.07;;;;;;;;;;4844551;29;20050;-87
2022/03/21 11:57:38;;;;;;;19.45;10.95;;;;;;;;;;4830186;29;20046;-85
2022/03/21 12:00:26;;;;;;;19.58;11.05;;;;;;;;;;4836739;29;20046;-85
2022/03/21 12:03:25;;;;;;;18.30;10.25;;;;;;;;;;4836254;29;20046;-85
2022/03/21 12:06:19;;;;;;;15.25;9.00;;;;;;;;;;4830139;29;20046;-85
2022/03/21 12:09:15;;;;;;;16.63;10.15;;;;;;;;;;4837134;29;20050;-86
2022/03/21 12:16:47;;;;;;;22.20;10.18;;;;;;;;;;4835351;29;20138;-86
2022/03/21 12:20:05;;;;;;;16.17;9.30;;;;;;;;;;4820680;29;20458;-86
2022/03/21 12:23:26;;;;;;;12.43;7.68;;;;;;;;;;4838162;29;20038;-87
2022/03/21 12:34:55;;;;;;;24.70;9.60;;;;;;;;;;4850158;29;20477;-86
2022/03/21 12:46:38;;;;;;;23.67;10.43;;;;;;;;;;4825654;29;20505;-86
2022/03/21 12:49:55;;;;;;;17.77;10.70;;;;;;;;;;4831957;29;20112;-86
2022/03/21 12:52:53;;;;;;;19.20;10.10;;;;;;;;;;4818637;29;20065;-85
2022/03/21 12:55:38;;;;;;;22.35;13.48;;;;;;;;;;4831311;29;20046;-85
2022/03/21 12:58:24;;;;;;;19.48;9.93;;;;;;;;;;4827094;29;20387;-86
2022/03/21 13:01:10;;;;;;;16.75;9.07;;;;;;;;;;4806912;29;20039;-85
2022/03/21 13:03:57;;;;;;;18.88;10.75;;;;;;;;;;4812590;29;20483;-85
2022/03/21 13:13:52;;;;;;;18.30;10.00;;;;;;;;;;4793765;29;20051;-85
2022/03/21 13:16:49;;;;;;;12.35;8.65;;;;;;;;;;4818065;29;20038;-86
2022/03/21 13:20:20;;;;;;;20.60;9.93;;;;;;;;;;4830481;29;20034;-87
2022/03/21 13:23:13;;;;;;;17.95;10.50;;;;;;;;;;4829811;29;20387;-85
2022/03/21 13:26:35;;;;;;;19.35;11.38;;;;;;;;;;4819092;29;20398;-87
2022/03/21 13:30:00;;;;;;;17.95;9.20;;;;;;;;;;4819509;29;20038;-86
2022/03/21 13:33:19;;;;;;;18.10;10.20;;;;;;;;;;4811396;29;20042;-86
2022/03/21 13:36:15;;;;;;;24.95;11.82;;;;;;;;;;4827719;29;20390;-84
2022/03/21 13:43:32;;;;;;;36.97;15.20;;;;;;;;;;4842352;29;20065;-84
2022/03/21 13:47:15;;;;;;;;;;;;;;;;;;;;;
2022/03/21 13:50:43;;;;;;;16.98;9.48;;;;;;;;;;4832132;29;20046;-87
2022/03/21 14:07:55;;;;;;;;;;;;;;;;;;;;;
2022/03/21 14:29:46;;;;;;;20.88;11.23;;;;;;;;;;4843094;29;20046;-83
2022/03/21 14:32:40;;;;;;;27.50;15.07;;;;;;;;;;4836756;29;20038;-85
2022/03/21 14:35:27;;;;;;;17.25;10.13;;;;;;;;;;4816168;29;20034;-84
2022/03/21 14:38:15;;;;;;;18.85;11.05;;;;;;;;;;4833562;29;20050;-86
2022/03/21 14:41:20;;;;;;;;;;;;;;;;;;;;;
2022/03/21 14:44:07;;;;;;;22.42;10.50;;;;;;;;;;4833669;29;20054;-85
2022/03/21 14:47:07;;;;;;;16.20;9.32;;;;;;;;;;4831400;29;20042;-87
2022/03/21 14:49:59;;;;;;;22.92;9.38;;;;;;;;;;4838426;29;20046;-85
2022/03/21 14:52:48;;;;;;;23.70;11.48;;;;;;;;;;4820092;29;20041;-83
2022/03/21 14:55:39;;;;;;;20.98;11.18;;;;;;;;;;4822314;29;20041;-85
2022/03/21 14:58:25;;;;;;;19.33;10.05;;;;;;;;;;4829469;29;20042;-82
2022/03/21 15:01:15;;;;;;;20.05;10.88;;;;;;;;;;4830068;29;20394;-86
2022/03/21 15:04:00;;;;;;;17.20;8.35;;;;;;;;;;4838282;29;20037;-88
2022/03/21 15:06:49;;;;;;;17.50;10.38;;;;;;;;;;4842441;29;20035;-85
2022/03/21 15:10:20;;;;;;;19.15;10.88;;;;;;;;;;4834770;29;20414;-84
2022/03/21 15:12:44;;;;;;;19.90;10.25;;;;;;;;;;4839888;29;20041;-85
2022/03/21 15:15:30;;;;;;;17.08;10.25;;;;;;;;;;4845373;29;20049;-85
2022/03/21 15:18:16;;;;;;;20.90;12.75;;;;;;;;;;4845343;29;20390;-84
2022/03/21 15:21:01;;;;;;;23.73;11.93;;;;;;;;;;4832724;29;20038;-85
2022/03/21 15:23:48;;;;;;;26.80;14.45;;;;;;;;;;4843609;29;20042;-85
2022/03/21 15:26:33;;;;;;;23.15;12.05;;;;;;;;;;4832049;29;20045;-85
2022/03/21 15:29:19;;;;;;;21.65;11.38;;;;;;;;;;4845262;29;20386;-85
2022/03/21 15:32:05;;;;;;;29.48;14.93;;;;;;;;;;4833659;29;20050;-86
2022/03/21 15:34:50;;;;;;;25.13;13.80;;;;;;;;;;4850492;29;20046;-85
2022/03/21 15:43:45;;;;;;;26.90;11.25;;;;;;;;;;4841487;29;20047;-86
2022/03/21 15:46:31;;;;;;;19.23;10.63;;;;;;;;;;4838058;29;20038;-85
2022/03/21 15:49:16;;;;;;;25.42;11.35;;;;;;;;;;4839733;29;20046;-84
2022/03/21 15:52:03;;;;;;;21.02;10.80;;;;;;;;;;4844065;29;20037;-84
2022/03/21 15:54:51;;;;;;;28.20;14.35;;;;;;;;;;4837261;29;20050;-85
2022/03/21 15:57:37;;;;;;;38.33;15.32;;;;;;;;;;4813034;29;20054;-85
2022/03/21 16:00:26;;;;;;;26.13;13.10;;;;;;;;;;4832368;29;20050;-85
2022/03/21 16:03:13;;;;;;;44.20;21.35;;;;;;;;;;4825540;29;20054;-85
2022/03/21 16:05:58;;;;;;;27.30;13.30;;;;;;;;;;4830028;29;20042;-84
2022/03/21 16:08:43;;;;;;;24.65;12.98;;;;;;;;;;4817595;29;20054;-83
2022/03/21 16:11:30;;;;;;;32.00;14.75;;;;;;;;;;4818029;29;20486;-84
2022/03/21 16:14:15;;;;;;;50.38;23.73;;;;;;;;;;4817307;29;20042;-86
2022/03/21 16:17:01;;;;;;;46.25;25.25;;;;;;;;;;4825329;29;20486;-84
2022/03/21 16:19:48;;;;;;;25.30;14.23;;;;;;;;;;4817274;29;20034;-85
2022/03/21 16:22:36;;;;;;;38.90;18.58;;;;;;;;;;4818126;29;20035;-84
2022/03/21 16:25:24;;;;;;;40.38;19.65;;;;;;;;;;4825703;29;20042;-86
2022/03/21 16:28:09;;;;;;;51.40;22.77;;;;;;;;;;4825666;29;20050;-84
2022/03/21 16:30:55;;;;;;;44.17;21.70;;;;;;;;;;4805224;29;20085;-85
2022/03/21 16:33:41;;;;;;;68.03;30.00;;;;;;;;;;4811850;29;20050;-86
2022/03/21 16:36:28;;;;;;;53.47;26.08;;;;;;;;;;4817735;29;20046;-84
2022/03/21 16:39:55;;;;;;;36.63;18.23;;;;;;;;;;4818455;29;20046;-85
2022/03/21 16:43:28;;;;;;;56.20;22.73;;;;;;;;;;4816330;29;20471;-85
2022/03/21 16:46:34;;;;;;;61.15;23.92;;;;;;;;;;4817991;29;20047;-83
2022/03/21 16:49:41;;;;;;;39.75;17.73;;;;;;;;;;4819913;29;20050;-84
2022/03/21 16:52:26;;;;;;;57.65;22.25;;;;;;;;;;4831207;29;20046;-82
2022/03/21 16:55:12;;;;;;;80.60;31.70;;;;;;;;;;4824634;29;20042;-84
2022/03/21 16:57:57;;;;;;;49.38;23.48;;;;;;;;;;4825432;29;20046;-84
2022/03/21 17:00:44;;;;;;;59.40;25.27;;;;;;;;;;4825438;29;20035;-85
2022/03/21 17:03:29;;;;;;;84.07;33.58;;;;;;;;;;4811034;29;20053;-83
2022/03/21 17:10:00;;;;;;;72.80;28.75;;;;;;;;;;4813127;29;20042;-85
2022/03/21 17:12:46;;;;;;;73.80;28.85;;;;;;;;;;4817179;29;20046;-82
2022/03/21 17:15:32;;;;;;;93.22;37.00;;;;;;;;;;4824953;29;20056;-80
2022/03/21 17:24:21;;;;;;;60.03;27.73;;;;;;;;;;4830293;29;20431;-83
2022/03/21 17:27:06;;;;;;;46.15;23.85;;;;;;;;;;4824176;29;20042;-81
2022/03/21 17:29:51;;;;;;;61.35;29.30;;;;;;;;;;4824862;29;20046;-82
2022/03/21 17:32:37;;;;;;;47.85;25.58;;;;;;;;;;4824828;29;20051;-84
2022/03/21 17:35:23;;;;;;;59.83;28.38;;;;;;;;;;4830610;29;20394;-84
2022/03/21 17:38:08;;;;;;;58.47;27.35;;;;;;;;;;4830298;29;20054;-80
2022/03/21 17:40:54;;;;;;;67.82;30.13;;;;;;;;;;4831879;29;20046;-84
2022/03/21 17:43:39;;;;;;;61.67;29.48;;;;;;;;;;4808721;29;20054;-88
2022/03/21 17:46:25;;;;;;;62.88;30.80;;;;;;;;;;4827146;29;20046;-85
2022/03/21 17:49:10;;;;;;;68.65;33.08;;;;;;;;;;4833228;29;20049;-85
2022/03/21 17:51:56;;;;;;;91.97;45.50;;;;;;;;;;4815796;29;20042;-87
2022/03/21 17:54:41;;;;;;;117.22;55.55;;;;;;;;;;4811418;29;20471;-84
2022/03/21 17:57:27;;;;;;;119.35;54.38;;;;;;;;;;4807801;29;20054;-87
2022/03/21 18:00:15;;;;;;;116.75;58.65;;;;;;;;;;4818857;29;20046;-87
2022/03/21 18:03:03;;;;;;;111.50;49.60;;;;;;;;;;4809443;29;20050;-87
2022/03/21 18:05:49;;;;;;;140.50;68.45;;;;;;;;;;4820371;29;20394;-88
2022/03/21 18:08:35;;;;;;;121.78;56.10;;;;;;;;;;4808099;29;20050;-89